sensor_id;sensor_type;location;lat;lon;timestamp;pressure;altitude;pressure_sealevel;temperature
69435;BMP180;56625;54.322;18.582;2023-11-18T00:00:32;101198.40;;;3.50
69435;BMP180;56625;54.322;18.582;2023-11-18T00:03:21;101194.60;;;3.60
69435;BMP180;56625;54.322;18.582;2023-11-18T00:05:49;101200.00;;;3.60
69435;BMP180;56625;54.322;18.582;2023-11-18T00:08:17;101197.80;;;3.60
69435;BMP180;56625;54.322;18.582;2023-11-18T00:10:45;101197.40;;;3.64
69435;BMP180;56625;54.322;18.582;2023-11-18T00:13:13;101202.20;;;3.70
69435;BMP180;56625;54.322;18.582;2023-11-18T00:15:41;101205.80;;;3.70
69435;BMP180;56625;54.322;18.582;2023-11-18T00:18:11;101205.60;;;3.72
69435;BMP180;56625;54.322;18.582;2023-11-18T00:20:39;101202.00;;;3.80
69435;BMP180;56625;54.322;18.582;2023-11-18T00:23:07;101209.00;;;3.80
69435;BMP180;56625;54.322;18.582;2023-11-18T00:25:35;101215.40;;;3.80
69435;BMP180;56625;54.322;18.582;2023-11-18T00:28:04;101217.20;;;3.70
69435;BMP180;56625;54.322;18.582;2023-11-18T00:30:34;101217.60;;;3.70
69435;BMP180;56625;54.322;18.582;2023-11-18T00:33:03;101222.40;;;3.70
69435;BMP180;56625;54.322;18.582;2023-11-18T00:35:31;101226.60;;;3.70
69435;BMP180;56625;54.322;18.582;2023-11-18T00:38:01;101229.40;;;3.80
69435;BMP180;56625;54.322;18.582;2023-11-18T00:40:30;101235.60;;;3.70
69435;BMP180;56625;54.322;18.582;2023-11-18T00:42:59;101242.40;;;3.66
69435;BMP180;56625;54.322;18.582;2023-11-18T00:45:27;101240.40;;;3.56
69435;BMP180;56625;54.322;18.582;2023-11-18T00:47:56;101246.40;;;3.44
69435;BMP180;56625;54.322;18.582;2023-11-18T00:50:24;101246.20;;;3.40
69435;BMP180;56625;54.322;18.582;2023-11-18T00:52:52;101254.60;;;3.30
69435;BMP180;56625;54.322;18.582;2023-11-18T00:55:21;101257.80;;;3.20
69435;BMP180;56625;54.322;18.582;2023-11-18T00:57:49;101257.00;;;3.20
69435;BMP180;56625;54.322;18.582;2023-11-18T01:00:17;101265.20;;;3.30
69435;BMP180;56625;54.322;18.582;2023-11-18T01:02:49;101262.00;;;3.36
69435;BMP180;56625;54.322;18.582;2023-11-18T01:05:18;101264.00;;;3.40
69435;BMP180;56625;54.322;18.582;2023-11-18T01:07:46;101263.40;;;3.42
69435;BMP180;56625;54.322;18.582;2023-11-18T01:10:14;101265.60;;;3.50
69435;BMP180;56625;54.322;18.582;2023-11-18T01:12:42;101263.20;;;3.50
69435;BMP180;56625;54.322;18.582;2023-11-18T01:15:13;101264.60;;;3.50
69435;BMP180;56625;54.322;18.582;2023-11-18T01:17:42;101274.00;;;3.60
69435;BMP180;56625;54.322;18.582;2023-11-18T01:20:11;101274.40;;;3.60
69435;BMP180;56625;54.322;18.582;2023-11-18T01:22:41;101272.60;;;3.60
69435;BMP180;56625;54.322;18.582;2023-11-18T01:25:11;101275.20;;;3.60
69435;BMP180;56625;54.322;18.582;2023-11-18T01:27:39;101273.20;;;3.50
69435;BMP180;56625;54.322;18.582;2023-11-18T01:30:08;101278.60;;;3.40
69435;BMP180;56625;54.322;18.582;2023-11-18T01:32:37;101282.00;;;3.50
69435;BMP180;56625;54.322;18.582;2023-11-18T01:35:09;101279.60;;;3.50
69435;BMP180;56625;54.322;18.582;2023-11-18T01:37:39;101271.60;;;3.50
69435;BMP180;56625;54.322;18.582;2023-11-18T01:40:07;101282.80;;;3.50
69435;BMP180;56625;54.322;18.582;2023-11-18T01:42:36;101281.40;;;3.50
69435;BMP180;56625;54.322;18.582;2023-11-18T01:45:05;101283.20;;;3.50
69435;BMP180;56625;54.322;18.582;2023-11-18T01:47:36;101280.20;;;3.40
69435;BMP180;56625;54.322;18.582;2023-11-18T01:50:08;101285.60;;;3.40
69435;BMP180;56625;54.322;18.582;2023-11-18T01:52:40;101286.60;;;3.40
69435;BMP180;56625;54.322;18.582;2023-11-18T01:55:13;101288.00;;;3.40
69435;BMP180;56625;54.322;18.582;2023-11-18T01:57:41;101286.20;;;3.40
69435;BMP180;56625;54.322;18.582;2023-11-18T02:00:13;101288.80;;;3.40
69435;BMP180;56625;54.322;18.582;2023-11-18T02:02:41;101287.80;;;3.40
69435;BMP180;56625;54.322;18.582;2023-11-18T02:05:11;101295.20;;;3.40
69435;BMP180;56625;54.322;18.582;2023-11-18T02:07:41;101301.40;;;3.34
69435;BMP180;56625;54.322;18.582;2023-11-18T02:10:10;101302.20;;;3.30
69435;BMP180;56625;54.322;18.582;2023-11-18T02:15:17;101303.40;;;3.30
69435;BMP180;56625;54.322;18.582;2023-11-18T02:17:48;101301.00;;;3.28
69435;BMP180;56625;54.322;18.582;2023-11-18T02:20:18;101305.60;;;3.30
69435;BMP180;56625;54.322;18.582;2023-11-18T02:22:49;101308.60;;;3.26
69435;BMP180;56625;54.322;18.582;2023-11-18T02:25:18;101308.40;;;3.20
69435;BMP180;56625;54.322;18.582;2023-11-18T02:27:46;101304.20;;;3.20
69435;BMP180;56625;54.322;18.582;2023-11-18T02:30:15;101304.60;;;3.10
69435;BMP180;56625;54.322;18.582;2023-11-18T02:35:44;101309.20;;;3.00
69435;BMP180;56625;54.322;18.582;2023-11-18T02:38:22;101306.60;;;3.00
69435;BMP180;56625;54.322;18.582;2023-11-18T02:40:58;101306.80;;;3.00
69435;BMP180;56625;54.322;18.582;2023-11-18T02:43:27;101307.40;;;3.00
69435;BMP180;56625;54.322;18.582;2023-11-18T02:45:57;101305.80;;;3.00
69435;BMP180;56625;54.322;18.582;2023-11-18T02:48:26;101307.00;;;3.00
69435;BMP180;56625;54.322;18.582;2023-11-18T02:50:56;101305.40;;;3.00
69435;BMP180;56625;54.322;18.582;2023-11-18T02:53:24;101314.00;;;3.00
69435;BMP180;56625;54.322;18.582;2023-11-18T02:55:53;101317.60;;;3.08
69435;BMP180;56625;54.322;18.582;2023-11-18T02:58:21;101314.40;;;3.00
69435;BMP180;56625;54.322;18.582;2023-11-18T03:00:49;101321.40;;;3.00
69435;BMP180;56625;54.322;18.582;2023-11-18T03:03:17;101319.20;;;2.94
69435;BMP180;56625;54.322;18.582;2023-11-18T03:05:46;101314.20;;;2.90
69435;BMP180;56625;54.322;18.582;2023-11-18T03:08:16;101327.00;;;2.90
69435;BMP180;56625;54.322;18.582;2023-11-18T03:10:44;101328.60;;;2.90
69435;BMP180;56625;54.322;18.582;2023-11-18T03:13:12;101336.20;;;3.00
69435;BMP180;56625;54.322;18.582;2023-11-18T03:15:40;101342.20;;;3.04
69435;BMP180;56625;54.322;18.582;2023-11-18T03:18:08;101332.00;;;3.10
69435;BMP180;56625;54.322;18.582;2023-11-18T03:20:37;101332.60;;;3.10
69435;BMP180;56625;54.322;18.582;2023-11-18T03:23:06;101328.00;;;3.04
69435;BMP180;56625;54.322;18.582;2023-11-18T03:25:37;101336.80;;;3.06
69435;BMP180;56625;54.322;18.582;2023-11-18T03:28:06;101335.60;;;3.00
69435;BMP180;56625;54.322;18.582;2023-11-18T03:30:35;101331.80;;;2.92
69435;BMP180;56625;54.322;18.582;2023-11-18T03:33:05;101330.60;;;2.90
69435;BMP180;56625;54.322;18.582;2023-11-18T03:35:33;101334.80;;;2.90
69435;BMP180;56625;54.322;18.582;2023-11-18T03:38:01;101340.20;;;2.88
69435;BMP180;56625;54.322;18.582;2023-11-18T03:40:29;101351.00;;;2.90
69435;BMP180;56625;54.322;18.582;2023-11-18T03:42:57;101354.60;;;3.00
69435;BMP180;56625;54.322;18.582;2023-11-18T03:45:26;101350.40;;;3.00
69435;BMP180;56625;54.322;18.582;2023-11-18T03:47:54;101346.00;;;3.00
69435;BMP180;56625;54.322;18.582;2023-11-18T03:50:24;101346.60;;;3.00
69435;BMP180;56625;54.322;18.582;2023-11-18T03:52:52;101341.60;;;2.98
69435;BMP180;56625;54.322;18.582;2023-11-18T03:55:20;101347.20;;;2.90
69435;BMP180;56625;54.322;18.582;2023-11-18T03:57:48;101349.80;;;2.88
69435;BMP180;56625;54.322;18.582;2023-11-18T04:00:16;101357.60;;;2.80
69435;BMP180;56625;54.322;18.582;2023-11-18T04:02:45;101360.60;;;2.80
69435;BMP180;56625;54.322;18.582;2023-11-18T04:05:14;101366.20;;;2.90
69435;BMP180;56625;54.322;18.582;2023-11-18T04:07:42;101372.40;;;2.90
69435;BMP180;56625;54.322;18.582;2023-11-18T04:10:10;101373.00;;;2.90
69435;BMP180;56625;54.322;18.582;2023-11-18T04:12:38;101376.00;;;2.90
69435;BMP180;56625;54.322;18.582;2023-11-18T04:15:07;101379.60;;;2.90
69435;BMP180;56625;54.322;18.582;2023-11-18T04:17:35;101379.40;;;2.92
69435;BMP180;56625;54.322;18.582;2023-11-18T04:20:04;101389.60;;;2.96
69435;BMP180;56625;54.322;18.582;2023-11-18T04:22:42;101386.60;;;2.90
69435;BMP180;56625;54.322;18.582;2023-11-18T04:25:12;101391.00;;;2.90
69435;BMP180;56625;54.322;18.582;2023-11-18T04:27:40;101392.80;;;2.80
69435;BMP180;56625;54.322;18.582;2023-11-18T04:30:13;101402.00;;;2.72
69435;BMP180;56625;54.322;18.582;2023-11-18T04:32:42;101403.40;;;2.66
69435;BMP180;56625;54.322;18.582;2023-11-18T04:35:11;101402.40;;;2.60
69435;BMP180;56625;54.322;18.582;2023-11-18T04:37:40;101399.80;;;2.60
69435;BMP180;56625;54.322;18.582;2023-11-18T04:40:11;101411.80;;;2.50
69435;BMP180;56625;54.322;18.582;2023-11-18T04:42:39;101411.40;;;2.50
69435;BMP180;56625;54.322;18.582;2023-11-18T04:45:08;101415.20;;;2.50
69435;BMP180;56625;54.322;18.582;2023-11-18T04:47:39;101416.60;;;2.44
69435;BMP180;56625;54.322;18.582;2023-11-18T04:50:10;101423.40;;;2.40
69435;BMP180;56625;54.322;18.582;2023-11-18T04:52:38;101422.80;;;2.40
69435;BMP180;56625;54.322;18.582;2023-11-18T04:55:08;101412.60;;;2.40
69435;BMP180;56625;54.322;18.582;2023-11-18T04:57:38;101415.60;;;2.30
69435;BMP180;56625;54.322;18.582;2023-11-18T05:00:07;101423.40;;;2.30
69435;BMP180;56625;54.322;18.582;2023-11-18T05:02:39;101425.00;;;2.30
69435;BMP180;56625;54.322;18.582;2023-11-18T05:05:09;101427.40;;;2.30
69435;BMP180;56625;54.322;18.582;2023-11-18T05:07:37;101423.20;;;2.30
69435;BMP180;56625;54.322;18.582;2023-11-18T05:10:07;101426.20;;;2.30
69435;BMP180;56625;54.322;18.582;2023-11-18T05:12:37;101424.80;;;2.30
69435;BMP180;56625;54.322;18.582;2023-11-18T05:15:07;101425.00;;;2.30
69435;BMP180;56625;54.322;18.582;2023-11-18T05:17:37;101423.80;;;2.30
69435;BMP180;56625;54.322;18.582;2023-11-18T05:20:06;101426.60;;;2.30
69435;BMP180;56625;54.322;18.582;2023-11-18T05:22:39;101429.60;;;2.30
69435;BMP180;56625;54.322;18.582;2023-11-18T05:25:07;101439.00;;;2.40
69435;BMP180;56625;54.322;18.582;2023-11-18T05:27:36;101444.60;;;2.40
69435;BMP180;56625;54.322;18.582;2023-11-18T05:30:05;101443.40;;;2.34
69435;BMP180;56625;54.322;18.582;2023-11-18T05:32:34;101440.00;;;2.30
69435;BMP180;56625;54.322;18.582;2023-11-18T05:35:04;101443.80;;;2.30
69435;BMP180;56625;54.322;18.582;2023-11-18T05:37:33;101445.00;;;2.30
69435;BMP180;56625;54.322;18.582;2023-11-18T05:40:05;101449.20;;;2.30
69435;BMP180;56625;54.322;18.582;2023-11-18T05:42:37;101456.80;;;2.36
69435;BMP180;56625;54.322;18.582;2023-11-18T05:45:07;101457.40;;;2.40
69435;BMP180;56625;54.322;18.582;2023-11-18T05:47:38;101461.80;;;2.40
69435;BMP180;56625;54.322;18.582;2023-11-18T05:50:07;101464.00;;;2.40
69435;BMP180;56625;54.322;18.582;2023-11-18T05:52:35;101462.80;;;2.40
69435;BMP180;56625;54.322;18.582;2023-11-18T05:55:04;101463.80;;;2.30
69435;BMP180;56625;54.322;18.582;2023-11-18T05:57:34;101464.00;;;2.30
69435;BMP180;56625;54.322;18.582;2023-11-18T06:00:04;101471.60;;;2.30
69435;BMP180;56625;54.322;18.582;2023-11-18T06:02:33;101467.80;;;2.30
69435;BMP180;56625;54.322;18.582;2023-11-18T06:05:04;101469.00;;;2.30
69435;BMP180;56625;54.322;18.582;2023-11-18T06:07:32;101469.60;;;2.30
69435;BMP180;56625;54.322;18.582;2023-11-18T06:10:02;101469.60;;;2.30
69435;BMP180;56625;54.322;18.582;2023-11-18T06:12:33;101467.60;;;2.30
69435;BMP180;56625;54.322;18.582;2023-11-18T06:15:01;101460.80;;;2.30
69435;BMP180;56625;54.322;18.582;2023-11-18T06:17:29;101466.20;;;2.30
69435;BMP180;56625;54.322;18.582;2023-11-18T06:19:57;101469.00;;;2.30
69435;BMP180;56625;54.322;18.582;2023-11-18T06:22:25;101471.00;;;2.36
69435;BMP180;56625;54.322;18.582;2023-11-18T06:24:53;101468.40;;;2.40
69435;BMP180;56625;54.322;18.582;2023-11-18T06:27:21;101464.00;;;2.42
69435;BMP180;56625;54.322;18.582;2023-11-18T06:29:52;101466.20;;;2.50
69435;BMP180;56625;54.322;18.582;2023-11-18T06:32:23;101468.40;;;2.50
69435;BMP180;56625;54.322;18.582;2023-11-18T06:34:53;101483.00;;;2.50
69435;BMP180;56625;54.322;18.582;2023-11-18T06:37:21;101479.00;;;2.50
69435;BMP180;56625;54.322;18.582;2023-11-18T06:39:49;101486.40;;;2.60
69435;BMP180;56625;54.322;18.582;2023-11-18T06:42:18;101492.00;;;2.60
69435;BMP180;56625;54.322;18.582;2023-11-18T06:44:46;101492.20;;;2.70
69435;BMP180;56625;54.322;18.582;2023-11-18T06:47:15;101500.00;;;2.70
69435;BMP180;56625;54.322;18.582;2023-11-18T06:49:46;101495.20;;;2.70
69435;BMP180;56625;54.322;18.582;2023-11-18T06:52:15;101495.60;;;2.80
69435;BMP180;56625;54.322;18.582;2023-11-18T06:54:43;101495.20;;;2.80
69435;BMP180;56625;54.322;18.582;2023-11-18T06:57:11;101501.40;;;2.88
69435;BMP180;56625;54.322;18.582;2023-11-18T06:59:40;101499.20;;;2.80
69435;BMP180;56625;54.322;18.582;2023-11-18T07:02:08;101499.20;;;2.80
69435;BMP180;56625;54.322;18.582;2023-11-18T07:04:38;101500.80;;;2.76
69435;BMP180;56625;54.322;18.582;2023-11-18T07:07:06;101503.60;;;2.70
69435;BMP180;56625;54.322;18.582;2023-11-18T07:09:36;101507.00;;;2.70
69435;BMP180;56625;54.322;18.582;2023-11-18T07:12:05;101511.00;;;2.70
69435;BMP180;56625;54.322;18.582;2023-11-18T07:14:33;101513.40;;;2.70
69435;BMP180;56625;54.322;18.582;2023-11-18T07:17:01;101518.00;;;2.70
69435;BMP180;56625;54.322;18.582;2023-11-18T07:19:29;101517.00;;;2.70
69435;BMP180;56625;54.322;18.582;2023-11-18T07:21:57;101518.20;;;2.70
69435;BMP180;56625;54.322;18.582;2023-11-18T07:24:25;101522.80;;;2.70
69435;BMP180;56625;54.322;18.582;2023-11-18T07:26:53;101520.20;;;2.64
69435;BMP180;56625;54.322;18.582;2023-11-18T07:29:22;101521.60;;;2.62
69435;BMP180;56625;54.322;18.582;2023-11-18T07:31:51;101521.80;;;2.60
69435;BMP180;56625;54.322;18.582;2023-11-18T07:34:19;101523.00;;;2.60
69435;BMP180;56625;54.322;18.582;2023-11-18T07:36:47;101526.40;;;2.60
69435;BMP180;56625;54.322;18.582;2023-11-18T07:39:16;101530.80;;;2.60
69435;BMP180;56625;54.322;18.582;2023-11-18T07:41:51;101535.60;;;2.60
69435;BMP180;56625;54.322;18.582;2023-11-18T07:44:20;101531.20;;;2.60
69435;BMP180;56625;54.322;18.582;2023-11-18T07:46:49;101538.20;;;2.60
69435;BMP180;56625;54.322;18.582;2023-11-18T07:49:17;101531.00;;;2.60
69435;BMP180;56625;54.322;18.582;2023-11-18T07:51:45;101524.80;;;2.60
69435;BMP180;56625;54.322;18.582;2023-11-18T07:54:13;101533.00;;;2.60
69435;BMP180;56625;54.322;18.582;2023-11-18T07:56:41;101534.60;;;2.70
69435;BMP180;56625;54.322;18.582;2023-11-18T07:59:10;101539.20;;;2.70
69435;BMP180;56625;54.322;18.582;2023-11-18T08:01:41;101541.60;;;2.70
69435;BMP180;56625;54.322;18.582;2023-11-18T08:04:12;101545.20;;;2.70
69435;BMP180;56625;54.322;18.582;2023-11-18T08:06:42;101548.20;;;2.70
69435;BMP180;56625;54.322;18.582;2023-11-18T08:09:11;101545.20;;;2.70
69435;BMP180;56625;54.322;18.582;2023-11-18T08:11:41;101548.60;;;2.80
69435;BMP180;56625;54.322;18.582;2023-11-18T08:14:09;101546.40;;;2.80
69435;BMP180;56625;54.322;18.582;2023-11-18T08:16:37;101541.40;;;2.80
69435;BMP180;56625;54.322;18.582;2023-11-18T08:19:06;101546.00;;;2.90
69435;BMP180;56625;54.322;18.582;2023-11-18T08:21:37;101546.00;;;2.90
69435;BMP180;56625;54.322;18.582;2023-11-18T08:24:09;101543.80;;;2.90
69435;BMP180;56625;54.322;18.582;2023-11-18T08:26:38;101545.40;;;2.98
69435;BMP180;56625;54.322;18.582;2023-11-18T08:29:06;101549.80;;;3.00
69435;BMP180;56625;54.322;18.582;2023-11-18T08:31:38;101545.40;;;3.00
69435;BMP180;56625;54.322;18.582;2023-11-18T08:34:07;101547.80;;;3.00
69435;BMP180;56625;54.322;18.582;2023-11-18T08:36:38;101546.00;;;3.00
69435;BMP180;56625;54.322;18.582;2023-11-18T08:39:06;101546.00;;;3.10
69435;BMP180;56625;54.322;18.582;2023-11-18T08:41:39;101543.80;;;3.10
69435;BMP180;56625;54.322;18.582;2023-11-18T08:44:07;101542.80;;;3.10
69435;BMP180;56625;54.322;18.582;2023-11-18T08:46:52;101547.40;;;3.10
69435;BMP180;56625;54.322;18.582;2023-11-18T08:49:20;101554.20;;;3.10
69435;BMP180;56625;54.322;18.582;2023-11-18T08:51:51;101555.60;;;3.14
69435;BMP180;56625;54.322;18.582;2023-11-18T08:54:24;101555.80;;;3.20
69435;BMP180;56625;54.322;18.582;2023-11-18T08:57:05;101561.20;;;3.20
69435;BMP180;56625;54.322;18.582;2023-11-18T08:59:51;101565.60;;;3.20
69435;BMP180;56625;54.322;18.582;2023-11-18T09:02:20;101562.20;;;3.22
69435;BMP180;56625;54.322;18.582;2023-11-18T09:04:52;101563.00;;;3.30
69435;BMP180;56625;54.322;18.582;2023-11-18T09:07:23;101565.20;;;3.40
69435;BMP180;56625;54.322;18.582;2023-11-18T09:09:52;101567.80;;;3.50
69435;BMP180;56625;54.322;18.582;2023-11-18T09:12:21;101571.20;;;3.50
69435;BMP180;56625;54.322;18.582;2023-11-18T09:14:49;101581.80;;;3.50
69435;BMP180;56625;54.322;18.582;2023-11-18T09:17:20;101592.40;;;3.48
69435;BMP180;56625;54.322;18.582;2023-11-18T09:19:51;101598.20;;;3.50
69435;BMP180;56625;54.322;18.582;2023-11-18T09:22:21;101598.20;;;3.50
69435;BMP180;56625;54.322;18.582;2023-11-18T09:24:49;101592.00;;;3.50
69435;BMP180;56625;54.322;18.582;2023-11-18T09:27:18;101601.20;;;3.60
69435;BMP180;56625;54.322;18.582;2023-11-18T09:29:46;101598.60;;;3.60
69435;BMP180;56625;54.322;18.582;2023-11-18T09:32:14;101594.20;;;3.60
69435;BMP180;56625;54.322;18.582;2023-11-18T09:34:42;101602.00;;;3.60
69435;BMP180;56625;54.322;18.582;2023-11-18T09:37:10;101603.00;;;3.60
69435;BMP180;56625;54.322;18.582;2023-11-18T09:39:38;101603.60;;;3.60
69435;BMP180;56625;54.322;18.582;2023-11-18T09:42:12;101603.60;;;3.60
69435;BMP180;56625;54.322;18.582;2023-11-18T09:44:42;101608.40;;;3.60
69435;BMP180;56625;54.322;18.582;2023-11-18T09:47:13;101605.40;;;3.60
69435;BMP180;56625;54.322;18.582;2023-11-18T09:49:45;101605.00;;;3.60
69435;BMP180;56625;54.322;18.582;2023-11-18T09:52:19;101602.60;;;3.60
69435;BMP180;56625;54.322;18.582;2023-11-18T09:55:04;101603.60;;;3.62
69435;BMP180;56625;54.322;18.582;2023-11-18T09:57:55;101597.60;;;3.64
69435;BMP180;56625;54.322;18.582;2023-11-18T10:00:28;101603.00;;;3.70
69435;BMP180;56625;54.322;18.582;2023-11-18T10:03:01;101600.80;;;3.70
69435;BMP180;56625;54.322;18.582;2023-11-18T10:05:30;101605.80;;;3.70
69435;BMP180;56625;54.322;18.582;2023-11-18T10:07:59;101605.00;;;3.70
69435;BMP180;56625;54.322;18.582;2023-11-18T10:10:27;101608.40;;;3.70
69435;BMP180;56625;54.322;18.582;2023-11-18T10:13:05;101605.00;;;3.70
69435;BMP180;56625;54.322;18.582;2023-11-18T10:15:52;101613.00;;;3.70
69435;BMP180;56625;54.322;18.582;2023-11-18T10:18:23;101611.80;;;3.72
69435;BMP180;56625;54.322;18.582;2023-11-18T10:20:52;101615.60;;;3.78
69435;BMP180;56625;54.322;18.582;2023-11-18T10:23:22;101620.00;;;3.80
69435;BMP180;56625;54.322;18.582;2023-11-18T10:25:53;101620.60;;;3.90
69435;BMP180;56625;54.322;18.582;2023-11-18T10:28:26;101620.20;;;3.92
69435;BMP180;56625;54.322;18.582;2023-11-18T10:31:02;101626.60;;;4.00
69435;BMP180;56625;54.322;18.582;2023-11-18T10:33:37;101623.60;;;3.96
69435;BMP180;56625;54.322;18.582;2023-11-18T10:36:17;101623.60;;;3.90
69435;BMP180;56625;54.322;18.582;2023-11-18T10:38:52;101624.80;;;3.90
69435;BMP180;56625;54.322;18.582;2023-11-18T10:41:24;101627.20;;;3.80
69435;BMP180;56625;54.322;18.582;2023-11-18T10:44:06;101628.80;;;3.80
69435;BMP180;56625;54.322;18.582;2023-11-18T10:46:53;101623.40;;;3.80
69435;BMP180;56625;54.322;18.582;2023-11-18T10:49:22;101617.40;;;3.80
69435;BMP180;56625;54.322;18.582;2023-11-18T10:51:53;101622.40;;;3.80
69435;BMP180;56625;54.322;18.582;2023-11-18T10:54:21;101618.80;;;3.80
69435;BMP180;56625;54.322;18.582;2023-11-18T10:56:50;101619.80;;;3.70
69435;BMP180;56625;54.322;18.582;2023-11-18T10:59:18;101622.80;;;3.70
69435;BMP180;56625;54.322;18.582;2023-11-18T11:01:46;101618.00;;;3.70
69435;BMP180;56625;54.322;18.582;2023-11-18T11:04:18;101624.60;;;3.70
69435;BMP180;56625;54.322;18.582;2023-11-18T11:06:50;101622.80;;;3.70
69435;BMP180;56625;54.322;18.582;2023-11-18T11:09:26;101621.00;;;3.66
69435;BMP180;56625;54.322;18.582;2023-11-18T11:12:10;101625.00;;;3.60
69435;BMP180;56625;54.322;18.582;2023-11-18T11:14:59;101626.80;;;3.60
69435;BMP180;56625;54.322;18.582;2023-11-18T11:17:28;101629.60;;;3.70
69435;BMP180;56625;54.322;18.582;2023-11-18T11:20:07;101631.80;;;3.70
69435;BMP180;56625;54.322;18.582;2023-11-18T11:29:07;101646.00;;;3.70
69435;BMP180;56625;54.322;18.582;2023-11-18T11:31:41;101650.20;;;3.70
69435;BMP180;56625;54.322;18.582;2023-11-18T11:34:20;101647.40;;;3.80
69435;BMP180;56625;54.322;18.582;2023-11-18T11:36:56;101653.60;;;3.76
69435;BMP180;56625;54.322;18.582;2023-11-18T11:39:26;101650.20;;;3.70
69435;BMP180;56625;54.322;18.582;2023-11-18T11:41:58;101659.20;;;3.70
69435;BMP180;56625;54.322;18.582;2023-11-18T11:44:27;101657.80;;;3.70
69435;BMP180;56625;54.322;18.582;2023-11-18T11:47:00;101659.00;;;3.70
69435;BMP180;56625;54.322;18.582;2023-11-18T11:49:46;101656.00;;;3.66
69435;BMP180;56625;54.322;18.582;2023-11-18T11:52:26;101656.40;;;3.56
69435;BMP180;56625;54.322;18.582;2023-11-18T11:55:06;101652.20;;;3.50
69435;BMP180;56625;54.322;18.582;2023-11-18T11:57:40;101654.60;;;3.42
69435;BMP180;56625;54.322;18.582;2023-11-18T12:00:12;101650.40;;;3.38
69435;BMP180;56625;54.322;18.582;2023-11-18T12:02:51;101647.00;;;3.30
69435;BMP180;56625;54.322;18.582;2023-11-18T12:05:26;101649.00;;;3.30
69435;BMP180;56625;54.322;18.582;2023-11-18T12:07:56;101647.00;;;3.30
69435;BMP180;56625;54.322;18.582;2023-11-18T12:10:30;101654.00;;;3.30
69435;BMP180;56625;54.322;18.582;2023-11-18T12:13:11;101652.80;;;3.24
69435;BMP180;56625;54.322;18.582;2023-11-18T12:15:53;101657.60;;;3.30
69435;BMP180;56625;54.322;18.582;2023-11-18T12:18:33;101655.60;;;3.30
69435;BMP180;56625;54.322;18.582;2023-11-18T12:21:04;101660.80;;;3.40
69435;BMP180;56625;54.322;18.582;2023-11-18T12:23:32;101661.80;;;3.50
69435;BMP180;56625;54.322;18.582;2023-11-18T12:26:38;101661.40;;;3.58
69435;BMP180;56625;54.322;18.582;2023-11-18T12:29:32;101667.00;;;3.60
69435;BMP180;56625;54.322;18.582;2023-11-18T12:32:02;101666.20;;;3.60
69435;BMP180;56625;54.322;18.582;2023-11-18T12:34:52;101667.20;;;3.58
69435;BMP180;56625;54.322;18.582;2023-11-18T12:37:56;101662.40;;;3.50
69435;BMP180;56625;54.322;18.582;2023-11-18T12:40:51;101658.40;;;3.50
69435;BMP180;56625;54.322;18.582;2023-11-18T12:43:46;101660.80;;;3.46
69435;BMP180;56625;54.322;18.582;2023-11-18T12:46:48;101659.00;;;3.40
69435;BMP180;56625;54.322;18.582;2023-11-18T12:49:41;101659.40;;;3.40
69435;BMP180;56625;54.322;18.582;2023-11-18T12:52:12;101664.80;;;3.50
69435;BMP180;56625;54.322;18.582;2023-11-18T12:54:48;101663.20;;;3.54
69435;BMP180;56625;54.322;18.582;2023-11-18T12:57:26;101665.60;;;3.60
69435;BMP180;56625;54.322;18.582;2023-11-18T12:59:54;101666.00;;;3.60
69435;BMP180;56625;54.322;18.582;2023-11-18T13:02:22;101665.40;;;3.60
69435;BMP180;56625;54.322;18.582;2023-11-18T13:04:51;101665.00;;;3.62
69435;BMP180;56625;54.322;18.582;2023-11-18T13:07:20;101660.00;;;3.70
69435;BMP180;56625;54.322;18.582;2023-11-18T13:09:50;101660.40;;;3.64
69435;BMP180;56625;54.322;18.582;2023-11-18T13:12:18;101663.40;;;3.70
69435;BMP180;56625;54.322;18.582;2023-11-18T13:14:48;101661.00;;;3.70
69435;BMP180;56625;54.322;18.582;2023-11-18T13:17:17;101657.60;;;3.70
69435;BMP180;56625;54.322;18.582;2023-11-18T13:19:45;101655.80;;;3.70
69435;BMP180;56625;54.322;18.582;2023-11-18T13:22:15;101654.80;;;3.70
69435;BMP180;56625;54.322;18.582;2023-11-18T13:24:47;101655.00;;;3.70
69435;BMP180;56625;54.322;18.582;2023-11-18T13:27:19;101652.20;;;3.70
69435;BMP180;56625;54.322;18.582;2023-11-18T13:29:49;101653.20;;;3.70
69435;BMP180;56625;54.322;18.582;2023-11-18T13:32:19;101653.80;;;3.70
69435;BMP180;56625;54.322;18.582;2023-11-18T13:34:54;101644.80;;;3.70
69435;BMP180;56625;54.322;18.582;2023-11-18T13:37:23;101645.80;;;3.60
69435;BMP180;56625;54.322;18.582;2023-11-18T13:39:55;101646.60;;;3.60
69435;BMP180;56625;54.322;18.582;2023-11-18T13:42:25;101645.00;;;3.56
69435;BMP180;56625;54.322;18.582;2023-11-18T13:45:03;101653.80;;;3.50
69435;BMP180;56625;54.322;18.582;2023-11-18T13:47:36;101658.40;;;3.50
69435;BMP180;56625;54.322;18.582;2023-11-18T13:50:09;101657.80;;;3.50
69435;BMP180;56625;54.322;18.582;2023-11-18T13:52:38;101653.80;;;3.50
69435;BMP180;56625;54.322;18.582;2023-11-18T13:55:07;101657.80;;;3.52
69435;BMP180;56625;54.322;18.582;2023-11-18T13:57:36;101661.80;;;3.50
69435;BMP180;56625;54.322;18.582;2023-11-18T14:00:07;101658.60;;;3.50
69435;BMP180;56625;54.322;18.582;2023-11-18T14:02:43;101652.60;;;3.50
69435;BMP180;56625;54.322;18.582;2023-11-18T14:05:18;101652.00;;;3.50
69435;BMP180;56625;54.322;18.582;2023-11-18T14:07:47;101645.80;;;3.44
69435;BMP180;56625;54.322;18.582;2023-11-18T14:10:16;101644.00;;;3.40
69435;BMP180;56625;54.322;18.582;2023-11-18T14:13:07;101644.20;;;3.40
69435;BMP180;56625;54.322;18.582;2023-11-18T14:15:41;101647.40;;;3.40
69435;BMP180;56625;54.322;18.582;2023-11-18T14:18:12;101648.60;;;3.40
69435;BMP180;56625;54.322;18.582;2023-11-18T14:20:42;101650.60;;;3.30
69435;BMP180;56625;54.322;18.582;2023-11-18T14:23:11;101657.40;;;3.30
69435;BMP180;56625;54.322;18.582;2023-11-18T14:25:39;101659.00;;;3.20
69435;BMP180;56625;54.322;18.582;2023-11-18T14:28:07;101654.80;;;3.18
69435;BMP180;56625;54.322;18.582;2023-11-18T14:30:39;101660.40;;;3.10